Gunnison, CO

01:31 AM MST am 04. März 2015 (GMT -0700)
West Ruby Ave Weather | Change Station
CLOSE
Current Station
Persönliche Wetterstationen
Location: Gunnison, CO
Höhe: 7713 ft
Wetterstationen in der Umgebung

Höhe 7713 ft 38.55 °N, 106.93 °W | Updated 44 seconds ago

Clear
Heiter
23.1 °F
gefühlte 23 °F
N
2.0
Wind Wechselnd Wind aus West-Südwest
Gusts 5.0 mph

Heute
Max. -- | schwach -- °F
--% Regenrisiko
Gestern
Max. -- | schwach -- °F
Precip. -- inch
6:35 AM 6:03 PM
Zweites Viertel, 98% visible
Druck 29.83 inch
Sichtweite 10.0 Meilen
Wolken Heiter
Windchill 23 °F
Taupunkt 14 °F
Feuchtigkeit 68%
Regen 0.00 inch
Schneehöhe Nicht verfügbar..
UV 0.0 von 12
Pollen 3.70 von 12
Luftqualität Nicht verfügbar..
Flu Activity Nicht verfügbar..
METAR KGUC 040815Z 23009KT 10SM CLR M05/M09 A2983 RMK AO1

More Conditions Fewer Conditions

Druck 29.83 inch
Sichtweite 10.0 Meilen
Wolken Heiter
Windchill 23 °F
Taupunkt 14 °F
Feuchtigkeit 68%
Regen 0.00 inch
Schneehöhe Nicht verfügbar..
UV 0.0 von 12
Pollen 3.70 von 12
Luftqualität Nicht verfügbar..
Flu Activity Nicht verfügbar..
METAR KGUC 040815Z 23009KT 10SM CLR M05/M09 A2983 RMK AO1

More Conditions Fewer Conditions

10-Day Weather Forecast

Almanac

Astronomie

Mar. 04, 2015 Aufgang Untergang
Genaue Zeit
Bürgerliche Dämmerung
Nautische Dämmerung
Astronomische Dämmerung
Mond
Länge des sichtbaren Lichts
Tageslänge
Tomorrow will be .
, % of the Moon is Illuminated

Heutige Rekorde

State Highs State Lows

Community

WunderPhotos

Upload Photos

1,802,416 Fotos hochgeladen!

WunderBlogs® & News

Nearby

Luftqualität

  Luftqualität LQ Index Schadstoff
Not available.

Schneehöhe

Station Depth Höhe

Erdbebenaktivität

Stadt Distance Mag. Time & Date
Minimum magnitude displayed is 2.5.

küstennahe Wassertemperaturen

Ort Temperatur

Wetterstationen in der Umgebung